createdAt,value
2024-01-04T00:01:23.678Z,48.14
2024-01-04T00:06:26.637Z,48.30
2024-01-04T00:11:30.867Z,48.35
2024-01-04T00:16:34.593Z,48.28
2024-01-04T00:21:37.443Z,48.39
2024-01-04T00:26:41.691Z,48.41
2024-01-04T00:31:44.757Z,48.41
2024-01-04T00:36:47.633Z,48.53
2024-01-04T00:41:51.908Z,48.39
2024-01-04T00:46:54.958Z,48.60
2024-01-04T00:51:57.800Z,48.70
2024-01-04T00:57:02.152Z,48.97
2024-01-04T01:02:05.761Z,49.16
2024-01-04T01:07:08.612Z,49.27
2024-01-04T01:12:12.956Z,49.49
2024-01-04T01:17:15.834Z,49.53
2024-01-04T01:22:18.728Z,49.80
2024-01-04T01:27:23.401Z,49.93
2024-01-04T01:32:26.282Z,50.25
2024-01-04T01:37:29.174Z,50.29
2024-01-04T01:42:33.346Z,50.32
2024-01-04T01:47:36.328Z,50.61
2024-01-04T01:52:39.380Z,50.83
2024-01-04T01:57:43.771Z,51.13
2024-01-04T02:02:49.159Z,51.17
2024-01-04T02:07:52.188Z,51.37
2024-01-04T02:12:57.489Z,51.65
2024-01-04T02:18:00.516Z,51.90
2024-01-04T02:23:05.611Z,52.05
2024-01-04T02:28:08.734Z,52.46
2024-01-04T02:33:11.789Z,52.46
2024-01-04T02:38:16.113Z,52.54
2024-01-04T02:43:18.953Z,52.72
2024-01-04T02:48:21.932Z,52.73
2024-01-04T02:53:26.257Z,52.93
2024-01-04T02:58:29.089Z,53.08
2024-01-04T03:03:32.016Z,52.97
2024-01-04T03:08:36.362Z,53.09
2024-01-04T03:13:39.247Z,52.79
2024-01-04T03:18:42.140Z,52.89
2024-01-04T03:23:46.476Z,53.02
2024-01-04T03:28:49.430Z,52.98
2024-01-04T03:33:53.196Z,53.32
2024-01-04T03:38:57.623Z,53.54
2024-01-04T03:44:00.476Z,53.71
2024-01-04T03:49:03.417Z,53.71
2024-01-04T03:54:07.793Z,53.78
2024-01-04T03:59:10.676Z,54.02
2024-01-04T04:04:13.702Z,53.91
2024-01-04T04:09:19.488Z,54.01
2024-01-04T04:14:22.851Z,54.17
2024-01-04T04:19:25.761Z,54.33
2024-01-04T04:24:31.540Z,54.75
2024-01-04T04:29:34.468Z,54.47
2024-01-04T04:34:37.576Z,54.32
2024-01-04T04:39:41.879Z,54.49
2024-01-04T04:44:44.811Z,54.09
2024-01-04T04:49:47.792Z,54.03
2024-01-04T04:54:51.963Z,53.98
2024-01-04T04:59:55.224Z,53.99
2024-01-04T05:04:58.179Z,53.84
2024-01-04T05:10:02.369Z,53.99
2024-01-04T05:15:06.094Z,53.84
2024-01-04T05:20:10.060Z,53.91
2024-01-04T05:25:14.483Z,53.84
2024-01-04T05:30:17.734Z,53.90
2024-01-04T05:35:20.863Z,53.85
2024-01-04T05:40:25.066Z,53.86
2024-01-04T05:45:27.941Z,53.69
2024-01-04T05:50:30.900Z,53.82
2024-01-04T05:55:35.047Z,53.73
2024-01-04T06:00:37.974Z,53.82
2024-01-04T06:05:41.026Z,53.72
2024-01-04T06:10:45.777Z,53.68
2024-01-04T06:15:48.589Z,53.81
2024-01-04T06:20:51.410Z,53.67
2024-01-04T06:25:55.670Z,53.76
2024-01-04T06:30:58.623Z,53.80
2024-01-04T06:36:02.713Z,53.67
2024-01-04T06:41:08.816Z,53.71
2024-01-04T06:46:14.136Z,53.73
2024-01-04T06:51:17.252Z,53.48
2024-01-04T06:56:21.519Z,53.38
2024-01-04T07:01:24.435Z,53.64
2024-01-04T07:06:27.338Z,53.55
2024-01-04T07:11:32.503Z,53.49
2024-01-04T07:16:35.314Z,53.29
2024-01-04T07:21:38.177Z,53.44
2024-01-04T07:26:42.453Z,53.25
2024-01-04T07:31:45.298Z,53.25
2024-01-04T07:36:48.147Z,53.38
2024-01-04T07:41:52.487Z,53.49
2024-01-04T07:46:55.302Z,53.41
2024-01-04T07:51:58.209Z,53.58
2024-01-04T07:57:03.001Z,53.28
2024-01-04T08:02:06.009Z,52.75
2024-01-04T08:07:09.389Z,51.75
2024-01-04T08:12:14.241Z,45.34
2024-01-04T08:17:17.245Z,45.36
2024-01-04T08:22:20.128Z,47.95
2024-01-04T08:27:25.400Z,48.83
2024-01-04T08:32:28.564Z,48.71
2024-01-04T08:37:31.452Z,48.68
2024-01-04T08:42:35.692Z,48.29
2024-01-04T08:47:38.739Z,48.37
2024-01-04T08:52:41.686Z,48.58
2024-01-04T08:57:46.075Z,48.81
2024-01-04T09:02:49.029Z,48.56
2024-01-04T09:07:51.941Z,48.50
2024-01-04T09:12:56.111Z,48.65
2024-01-04T09:17:59.227Z,48.86
2024-01-04T09:23:02.195Z,48.78
2024-01-04T09:28:06.988Z,49.10
2024-01-04T09:33:09.975Z,49.16
2024-01-04T09:38:12.831Z,49.29
2024-01-04T09:43:17.193Z,49.41
2024-01-04T09:48:28.188Z,49.26
2024-01-04T09:53:34.715Z,49.51
2024-01-04T09:58:39.004Z,49.94
2024-01-04T10:03:41.869Z,50.70
2024-01-04T10:08:44.739Z,51.25
2024-01-04T10:13:50.837Z,51.68
2024-01-04T10:18:54.596Z,51.90
2024-01-04T10:23:59.345Z,52.10
2024-01-04T10:29:03.690Z,52.05
2024-01-04T10:34:06.594Z,51.86
2024-01-04T10:39:09.823Z,51.75
2024-01-04T10:44:13.986Z,51.25
2024-01-04T10:49:17.676Z,51.54
2024-01-04T10:54:20.824Z,52.44
2024-01-04T10:59:25.122Z,52.99
2024-01-04T11:04:30.917Z,53.13
2024-01-04T11:09:35.320Z,53.15
2024-01-04T11:14:39.582Z,53.83
2024-01-04T11:19:51.291Z,53.75
2024-01-04T11:24:58.013Z,53.65
2024-01-04T11:30:02.371Z,53.35
2024-01-04T11:35:06.535Z,53.00
2024-01-04T11:40:10.223Z,52.89
2024-01-04T11:45:17.797Z,53.02
2024-01-04T11:50:25.551Z,52.90
2024-01-04T11:55:30.340Z,52.54
2024-01-04T12:00:35.648Z,52.89
2024-01-04T12:05:38.674Z,53.05
2024-01-04T12:10:42.421Z,53.21
2024-01-04T12:15:46.609Z,53.15
2024-01-04T12:20:49.514Z,53.24
2024-01-04T12:25:52.473Z,53.61
2024-01-04T12:30:56.768Z,53.44
2024-01-04T12:36:00.856Z,53.61
2024-01-04T12:41:03.996Z,53.42
2024-01-04T12:46:10.297Z,43.90
2024-01-04T12:51:16.463Z,41.39
2024-01-04T12:56:21.681Z,42.04
2024-01-04T13:01:26.090Z,46.88
2024-01-04T13:06:29.565Z,46.66
2024-01-04T13:11:32.979Z,47.39
2024-01-04T13:16:37.480Z,47.76
2024-01-04T13:21:40.573Z,48.27
2024-01-04T13:26:45.059Z,48.91
2024-01-04T13:31:49.774Z,49.58
2024-01-04T13:36:52.682Z,50.33
2024-01-04T13:41:55.668Z,50.51
2024-01-04T13:46:59.908Z,50.93
2024-01-04T13:52:04.346Z,50.81
2024-01-04T13:57:07.260Z,50.85
2024-01-04T14:02:11.554Z,50.95
2024-01-04T14:07:14.439Z,51.19
2024-01-04T14:12:17.386Z,51.78
2024-01-04T14:17:21.699Z,52.48
2024-01-04T14:22:24.538Z,52.52
2024-01-04T14:27:28.087Z,53.05
2024-01-04T14:32:33.714Z,53.33
2024-01-04T14:37:39.827Z,53.49
2024-01-04T14:42:43.145Z,53.76
2024-01-04T14:47:48.068Z,53.92
2024-01-04T14:52:51.248Z,53.88
2024-01-04T14:57:54.956Z,53.83
2024-01-04T15:02:59.359Z,54.58
2024-01-04T15:08:03.950Z,54.62
2024-01-04T15:13:07.229Z,54.74
2024-01-04T15:18:12.363Z,55.04
2024-01-04T15:23:17.151Z,54.87
2024-01-04T15:28:20.888Z,55.18
2024-01-04T15:33:25.566Z,55.05
2024-01-04T15:38:28.886Z,54.78
2024-01-04T15:43:32.149Z,54.94
2024-01-04T15:48:36.991Z,54.91
2024-01-04T15:53:40.072Z,55.28
2024-01-04T15:58:43.027Z,55.47
2024-01-04T16:03:48.020Z,55.57
2024-01-04T16:08:51.007Z,55.45
2024-01-04T16:13:53.891Z,55.69
2024-01-04T16:18:58.261Z,55.84
2024-01-04T16:24:01.400Z,55.76
2024-01-04T16:29:04.876Z,55.53
2024-01-04T16:34:09.119Z,55.72
2024-01-04T16:39:14.077Z,55.65
2024-01-04T16:44:17.036Z,55.69
2024-01-04T16:49:22.644Z,55.70
2024-01-04T16:54:25.793Z,55.75
2024-01-04T16:59:28.741Z,56.62
2024-01-04T17:04:32.975Z,57.29
2024-01-04T17:09:36.116Z,57.69
2024-01-04T17:14:39.090Z,58.04
2024-01-04T17:19:43.525Z,57.96
2024-01-04T17:24:46.456Z,57.92
2024-01-04T17:29:49.371Z,57.91
2024-01-04T17:34:53.560Z,57.87
2024-01-04T17:39:56.777Z,58.24
2024-01-04T17:45:00.683Z,58.06
2024-01-04T17:50:07.329Z,57.94
2024-01-04T17:55:11.423Z,58.02
2024-01-04T18:00:15.533Z,58.03
2024-01-04T18:05:19.927Z,57.94
2024-01-04T18:10:22.925Z,57.81
2024-01-04T18:15:26.282Z,57.74
2024-01-04T18:20:31.294Z,57.64
2024-01-04T18:25:35.111Z,57.51
2024-01-04T18:30:38.329Z,57.36
2024-01-04T18:35:43.846Z,57.53
2024-01-04T18:40:46.834Z,57.27
2024-01-04T18:45:49.761Z,57.11
2024-01-04T18:50:53.984Z,56.68
2024-01-04T18:55:56.995Z,56.54
2024-01-04T19:01:00.381Z,56.25
2024-01-04T19:06:05.250Z,56.37
2024-01-04T19:11:08.490Z,56.07
2024-01-04T19:16:11.547Z,55.89
2024-01-04T19:21:15.803Z,55.67
2024-01-04T19:26:21.508Z,55.22
2024-01-04T19:31:24.364Z,55.28
2024-01-04T19:36:29.778Z,54.90
2024-01-04T19:41:32.678Z,54.81
2024-01-04T19:46:36.742Z,54.73
2024-01-04T19:51:41.264Z,54.62
2024-01-04T19:56:44.531Z,54.46
2024-01-04T20:01:49.233Z,54.06
2024-01-04T20:06:53.450Z,54.11
2024-01-04T20:11:56.345Z,53.86
2024-01-04T20:16:59.282Z,53.76
2024-01-04T20:22:03.759Z,53.63
2024-01-04T20:27:06.969Z,53.40
2024-01-04T20:32:10.176Z,53.27
2024-01-04T20:37:15.058Z,52.75
2024-01-04T20:42:18.065Z,52.93
2024-01-04T20:47:20.964Z,52.90
2024-01-04T20:52:25.219Z,52.34
2024-01-04T20:57:28.273Z,52.29
2024-01-04T21:02:31.573Z,52.14
2024-01-04T21:07:35.883Z,51.95
2024-01-04T21:12:38.732Z,51.75
2024-01-04T21:17:41.606Z,51.48
2024-01-04T21:22:45.872Z,51.62
2024-01-04T21:27:49.731Z,51.36
2024-01-04T21:32:52.654Z,51.15
2024-01-04T21:37:56.984Z,51.12
2024-01-04T21:42:59.813Z,51.12
2024-01-04T21:48:02.769Z,51.06
2024-01-04T21:53:07.130Z,51.03
2024-01-04T21:58:10.036Z,51.01
2024-01-04T22:03:12.975Z,51.04
2024-01-04T22:08:17.223Z,51.11
2024-01-04T22:13:20.564Z,50.89
2024-01-04T22:18:23.613Z,51.19
2024-01-04T22:23:27.861Z,51.01
2024-01-04T22:28:30.901Z,50.95
2024-01-04T22:33:33.952Z,51.00
2024-01-04T22:38:38.352Z,50.97
2024-01-04T22:43:41.195Z,50.93
2024-01-04T22:48:44.082Z,51.20
2024-01-04T22:53:48.336Z,51.27
2024-01-04T22:58:51.292Z,51.37
2024-01-04T23:03:54.194Z,51.47
2024-01-04T23:08:58.474Z,51.78
2024-01-04T23:14:02.165Z,52.13
2024-01-04T23:19:05.148Z,52.56
2024-01-04T23:24:09.690Z,52.57
2024-01-04T23:29:12.595Z,52.85
2024-01-04T23:34:15.593Z,53.07
2024-01-04T23:39:19.998Z,53.14
2024-01-04T23:44:23.046Z,53.63
2024-01-04T23:49:25.994Z,53.97
2024-01-04T23:54:30.425Z,54.08
2024-01-04T23:59:33.443Z,54.51
